Time;durP1;ratioP1;P1;durP2;ratioP2;P2;SDS_P1;SDS_P2;PMS_P1;PMS_P2;Temp;Humidity;BMP_temperature;BMP_pressure;BME280_temperature;BME280_humidity;BME280_pressure;Samples;Min_cycle;Max_cycle;Signal;HPM_P1;HPM_P2
2023/10/30 00:01:54;;;;;;;7.57;4.50;;;;;;;10.66;100.00;96372.94;5043422;28;20127;-62
2023/10/30 00:04:21;;;;;;;6.32;4.53;;;;;;;10.58;100.00;96379.72;5043449;28;20059;-63
2023/10/30 00:06:47;;;;;;;7.47;4.53;;;;;;;10.54;100.00;96393.00;5048807;28;20094;-62
2023/10/30 00:09:17;;;;;;;7.57;5.10;;;;;;;10.53;100.00;96409.50;5048363;28;20578;-63
2023/10/30 00:11:46;;;;;;;7.50;4.60;;;;;;;10.62;100.00;96405.13;5046567;28;20076;-63
2023/10/30 00:14:13;;;;;;;6.20;4.15;;;;;;;10.63;100.00;96395.13;5051229;28;20124;-62
2023/10/30 00:16:40;;;;;;;7.53;4.18;;;;;;;10.63;100.00;96400.56;5048187;28;20116;-63
2023/10/30 00:19:06;;;;;;;6.72;4.63;;;;;;;10.58;100.00;96404.06;5053496;28;20044;-63
2023/10/30 00:21:33;;;;;;;7.82;4.70;;;;;;;10.53;100.00;96412.22;5044912;28;20745;-63
2023/10/30 00:24:01;;;;;;;8.05;4.55;;;;;;;10.57;100.00;96442.28;5049571;28;20052;-62
2023/10/30 00:26:29;;;;;;;7.05;4.30;;;;;;;10.56;100.00;96418.97;5058108;28;20048;-62
2023/10/30 00:28:57;;;;;;;6.03;3.90;;;;;;;10.56;100.00;96403.56;5053591;28;20106;-63
2023/10/30 00:31:24;;;;;;;6.63;4.30;;;;;;;10.57;100.00;96407.88;5048198;28;20133;-62
2023/10/30 00:33:51;;;;;;;6.72;4.53;;;;;;;10.54;100.00;96395.69;5052811;28;20041;-63
2023/10/30 00:36:18;;;;;;;9.32;4.32;;;;;;;10.47;100.00;96392.47;5044653;28;20041;-62
2023/10/30 00:38:45;;;;;;;8.13;4.55;;;;;;;10.58;100.00;96403.28;5036021;28;20501;-63
2023/10/30 00:41:11;;;;;;;5.60;3.58;;;;;;;10.60;100.00;96396.50;5043605;28;20558;-63
2023/10/30 00:43:38;;;;;;;5.60;3.20;;;;;;;10.65;100.00;96390.28;5044419;28;20128;-63
2023/10/30 00:46:06;;;;;;;7.65;4.40;;;;;;;10.61;100.00;96395.41;5030933;28;20045;-63
2023/10/30 00:48:33;;;;;;;8.70;4.43;;;;;;;10.52;100.00;96416.00;5043340;28;20491;-63
2023/10/30 00:51:00;;;;;;;8.07;5.25;;;;;;;10.45;100.00;96434.44;5054174;28;20045;-63
2023/10/30 00:53:27;;;;;;;7.25;5.28;;;;;;;10.43;100.00;96453.59;5047155;28;20044;-63
2023/10/30 00:55:54;;;;;;;9.02;5.25;;;;;;;10.51;100.00;96460.41;5037580;28;20045;-62
2023/10/30 00:58:21;;;;;;;7.57;4.97;;;;;;;10.51;100.00;96461.19;5045120;28;20442;-64
2023/10/30 01:00:47;;;;;;;7.25;5.05;;;;;;;10.47;100.00;96470.16;5041364;28;20048;-62
2023/10/30 01:03:15;;;;;;;7.03;4.93;;;;;;;10.43;100.00;96472.56;5039849;28;20033;-62
2023/10/30 01:05:42;;;;;;;8.13;5.38;;;;;;;10.45;100.00;96486.66;5041217;28;20356;-62
2023/10/30 01:08:09;;;;;;;7.82;5.88;;;;;;;10.50;100.00;96481.25;5040484;28;20040;-62
2023/10/30 01:10:36;;;;;;;8.35;5.53;;;;;;;10.52;100.00;96478.25;5046557;28;20041;-63
2023/10/30 01:13:03;;;;;;;8.15;5.32;;;;;;;10.52;100.00;96487.22;5038401;28;20045;-63
2023/10/30 01:15:30;;;;;;;11.52;5.40;;;;;;;10.45;100.00;96477.72;5041802;28;20033;-63
2023/10/30 01:17:56;;;;;;;9.13;5.60;;;;;;;10.36;100.00;96491.78;5043566;28;20083;-62
2023/10/30 01:20:23;;;;;;;8.02;5.18;;;;;;;10.37;100.00;96496.13;5039209;28;20058;-63
2023/10/30 01:22:50;;;;;;;5.70;3.90;;;;;;;10.38;100.00;96496.91;5048596;28;20053;-63
2023/10/30 01:25:16;;;;;;;4.63;2.70;;;;;;;10.42;100.00;96489.88;5043444;28;20041;-63
2023/10/30 01:27:43;;;;;;;3.17;1.75;;;;;;;10.45;100.00;96469.59;5048928;28;20052;-63
2023/10/30 01:30:11;;;;;;;2.60;1.33;;;;;;;10.47;100.00;96475.56;5047601;28;20087;-62
2023/10/30 01:32:38;;;;;;;3.75;1.85;;;;;;;10.43;100.00;96459.03;5048944;28;20121;-63
2023/10/30 01:35:05;;;;;;;5.13;1.40;;;;;;;10.49;100.00;96449.03;5043024;28;20033;-62
2023/10/30 01:37:31;;;;;;;1.80;0.73;;;;;;;10.47;100.00;96433.06;5045663;28;20049;-63
2023/10/30 01:39:58;;;;;;;0.95;0.60;;;;;;;10.55;100.00;96437.13;5043484;28;20041;-63
2023/10/30 01:42:24;;;;;;;0.82;0.40;;;;;;;10.55;100.00;96423.59;5051711;28;20400;-63
2023/10/30 01:44:53;;;;;;;2.10;1.02;;;;;;;10.55;100.00;96418.19;5041279;28;20136;-62
2023/10/30 01:47:21;;;;;;;2.03;0.73;;;;;;;10.54;100.00;96417.34;5043413;28;20040;-62
2023/10/30 01:49:49;;;;;;;1.10;0.50;;;;;;;10.58;100.00;96400.56;5038845;28;20045;-63
2023/10/30 01:52:17;;;;;;;1.80;0.60;;;;;;;10.52;100.00;96399.78;5037289;28;20037;-62
2023/10/30 01:54:46;;;;;;;0.93;0.60;;;;;;;10.56;100.00;96417.09;5045938;28;20049;-63
2023/10/30 01:57:15;;;;;;;1.67;0.50;;;;;;;10.52;100.00;96403.31;5043472;28;20132;-63
2023/10/30 01:59:42;;;;;;;1.83;0.60;;;;;;;10.47;100.00;96397.88;5041937;28;20135;-63
2023/10/30 02:02:11;;;;;;;2.17;1.02;;;;;;;10.39;100.00;96399.22;5048932;28;20060;-64
2023/10/30 02:04:37;;;;;;;4.93;0.77;;;;;;;10.37;100.00;96408.72;5050983;28;20048;-64
2023/10/30 02:07:04;;;;;;;2.30;0.55;;;;;;;10.38;100.00;96413.03;5044034;28;20132;-64
2023/10/30 02:09:34;;;;;;;2.58;0.35;;;;;;;10.37;100.00;96406.00;5050462;28;20048;-64
2023/10/30 02:12:00;;;;;;;0.65;0.40;;;;;;;10.33;100.00;96396.81;5045923;28;20523;-64
2023/10/30 02:14:27;;;;;;;1.38;0.65;;;;;;;10.24;100.00;96404.66;5051656;28;20060;-64
2023/10/30 02:16:53;;;;;;;2.25;0.43;;;;;;;10.17;100.00;96404.16;5046069;28;20419;-64
2023/10/30 02:19:24;;;;;;;1.20;0.52;;;;;;;10.17;100.00;96404.16;5048819;28;20960;-64
2023/10/30 02:21:52;;;;;;;0.95;0.60;;;;;;;10.15;100.00;96399.81;5044563;28;20099;-65
2023/10/30 02:24:19;;;;;;;3.22;0.50;;;;;;;10.11;100.00;96425.81;5054836;28;20029;-64
2023/10/30 02:26:47;;;;;;;1.83;0.90;;;;;;;10.04;100.00;96419.03;5058896;28;20048;-64
2023/10/30 02:29:14;;;;;;;1.52;0.52;;;;;;;10.04;100.00;96416.34;5048102;28;20416;-63
2023/10/30 02:31:41;;;;;;;1.38;0.63;;;;;;;9.96;100.00;96410.41;5058304;28;20040;-63
2023/10/30 02:34:08;;;;;;;1.48;0.55;;;;;;;9.98;100.00;96431.75;5048577;28;20052;-63
2023/10/30 02:36:35;;;;;;;7.22;0.68;;;;;;;9.95;100.00;96427.69;5054859;28;20036;-64
2023/10/30 02:39:03;;;;;;;1.77;0.63;;;;;;;9.86;100.00;96434.75;5049392;28;20116;-64
2023/10/30 02:41:31;;;;;;;0.52;0.43;;;;;;;9.85;100.00;96435.81;5052742;28;20037;-63
2023/10/30 02:43:58;;;;;;;3.35;1.33;;;;;;;9.93;100.00;96456.91;5058729;28;20067;-63
2023/10/30 02:46:25;;;;;;;0.88;0.40;;;;;;;9.93;100.00;96478.56;5043203;28;20044;-64
2023/10/30 02:48:53;;;;;;;1.77;0.80;;;;;;;9.97;100.00;96463.41;5048300;28;20048;-64
2023/10/30 02:51:19;;;;;;;1.50;0.80;;;;;;;9.97;100.00;96455.28;5041376;28;20040;-63
2023/10/30 02:53:46;;;;;;;1.25;0.65;;;;;;;9.99;100.00;96449.63;5036388;28;20045;-63
2023/10/30 02:56:13;;;;;;;1.45;0.70;;;;;;;9.96;100.00;96425.81;5047080;28;20037;-63
2023/10/30 02:58:39;;;;;;;2.45;0.70;;;;;;;9.96;100.00;96407.72;5051733;28;20047;-64
2023/10/30 03:01:06;;;;;;;2.33;0.70;;;;;;;9.93;100.00;96410.94;5047679;28;20049;-64
2023/10/30 03:03:33;;;;;;;3.75;0.90;;;;;;;9.87;100.00;96406.59;5053329;28;20550;-63
2023/10/30 03:05:59;;;;;;;0.95;0.60;;;;;;;9.79;100.00;96407.16;5043694;28;20076;-64
2023/10/30 03:08:26;;;;;;;1.25;0.70;;;;;;;9.79;100.00;96405.28;5051186;28;20048;-63
2023/10/30 03:10:52;;;;;;;3.40;0.88;;;;;;;9.78;100.00;96410.94;5044435;28;20045;-63
2023/10/30 03:13:20;;;;;;;4.60;0.90;;;;;;;9.82;100.00;96430.94;5046256;28;20707;-63
2023/10/30 03:15:47;;;;;;;1.88;0.90;;;;;;;9.83;100.00;96422.56;5045733;28;20037;-64
2023/10/30 03:18:14;;;;;;;4.10;1.20;;;;;;;9.86;100.00;96426.63;5042301;28;20043;-64
2023/10/30 03:20:41;;;;;;;3.70;1.20;;;;;;;9.86;100.00;96424.75;5069957;28;20044;-64
2023/10/30 03:23:08;;;;;;;2.97;1.05;;;;;;;9.90;100.00;96425.00;5048478;28;20056;-64
2023/10/30 03:25:34;;;;;;;1.70;0.90;;;;;;;9.94;100.00;96436.06;5044860;28;20049;-64
2023/10/30 03:28:02;;;;;;;2.97;0.90;;;;;;;9.86;100.00;96415.81;5049759;28;20059;-64
2023/10/30 03:30:28;;;;;;;2.13;0.90;;;;;;;9.88;100.00;96400.13;5052187;28;20060;-63
2023/10/30 03:32:55;;;;;;;2.08;0.88;;;;;;;9.70;100.00;96396.09;5048795;28;20036;-64
2023/10/30 03:35:22;;;;;;;2.67;1.20;;;;;;;9.67;100.00;96386.63;5052405;28;20048;-64
2023/10/30 03:37:48;;;;;;;2.35;1.00;;;;;;;9.70;100.00;96387.97;5045348;28;20131;-64
2023/10/30 03:40:15;;;;;;;2.10;1.08;;;;;;;9.63;100.00;96377.44;5046558;28;20052;-64
2023/10/30 03:42:41;;;;;;;4.28;1.10;;;;;;;9.62;100.00;96386.63;5045582;28;20037;-64
2023/10/30 03:45:09;;;;;;;1.70;0.88;;;;;;;9.56;100.00;96387.69;5049431;28;20635;-63
2023/10/30 03:47:36;;;;;;;4.72;1.30;;;;;;;9.65;100.00;96423.91;5049102;28;20040;-64
2023/10/30 03:50:02;;;;;;;7.85;1.20;;;;;;;9.62;100.00;96405.56;5053106;28;20553;-64
2023/10/30 03:52:29;;;;;;;2.05;1.00;;;;;;;9.63;100.00;96417.97;5047329;28;20048;-64
2023/10/30 03:55:03;;;;;;;3.30;1.40;;;;;;;9.57;100.00;96405.53;5050828;28;20041;-63
2023/10/30 03:57:30;;;;;;;37.92;2.45;;;;;;;9.47;100.00;96388.22;5046878;28;20041;-63
2023/10/30 03:59:57;;;;;;;2.17;0.75;;;;;;;9.42;100.00;96382.00;5048890;28;20047;-64
2023/10/30 04:02:23;;;;;;;5.05;0.90;;;;;;;9.23;100.00;96385.22;5049721;28;20040;-64
2023/10/30 04:04:50;;;;;;;3.85;1.05;;;;;;;9.22;100.00;96380.91;5045217;28;20045;-64
2023/10/30 04:07:16;;;;;;;2.08;1.05;;;;;;;9.17;100.00;96378.19;5047768;28;20075;-64
2023/10/30 04:09:43;;;;;;;1.50;0.85;;;;;;;9.13;100.00;96390.63;5046362;28;20503;-64
2023/10/30 04:12:10;;;;;;;3.80;0.88;;;;;;;9.10;100.00;96394.66;5045194;28;20040;-64
2023/10/30 04:14:37;;;;;;;2.90;1.13;;;;;;;9.13;100.00;96394.13;5043607;28;20059;-64
2023/10/30 04:17:04;;;;;;;4.03;1.38;;;;;;;9.15;100.00;96393.84;5051505;28;20041;-64
2023/10/30 04:19:31;;;;;;;4.20;1.25;;;;;;;9.18;100.00;96383.31;5054327;28;20119;-64
2023/10/30 04:21:57;;;;;;;2.28;1.20;;;;;;;9.07;100.00;96376.31;5048076;28;20634;-63
2023/10/30 04:24:24;;;;;;;3.63;1.50;;;;;;;9.09;100.00;96395.72;5049863;28;20044;-64
2023/10/30 04:26:50;;;;;;;3.22;1.35;;;;;;;9.15;100.00;96407.38;5048927;28;20049;-64
2023/10/30 04:29:17;;;;;;;3.60;1.50;;;;;;;9.04;100.00;96401.94;5052845;28;20076;-64
2023/10/30 04:31:43;;;;;;;7.30;1.33;;;;;;;9.06;100.00;96402.47;5045626;28;20358;-64
2023/10/30 04:34:10;;;;;;;3.88;1.40;;;;;;;9.13;100.00;96421.13;5044345;28;20047;-64
2023/10/30 04:36:37;;;;;;;3.72;1.30;;;;;;;9.05;100.00;96405.44;5044407;28;20071;-64
2023/10/30 04:39:03;;;;;;;5.60;1.25;;;;;;;9.02;100.00;96422.16;5052483;28;20072;-64
2023/10/30 04:41:33;;;;;;;3.97;1.10;;;;;;;8.97;100.00;96415.69;5058843;28;20071;-64
2023/10/30 04:43:59;;;;;;;3.22;1.10;;;;;;;9.04;100.00;96433.53;5044360;28;20036;-64
2023/10/30 04:46:26;;;;;;;4.28;1.70;;;;;;;9.06;100.00;96425.97;5043903;28;20055;-64
2023/10/30 04:48:53;;;;;;;3.78;1.10;;;;;;;9.12;100.00;96422.22;5047610;28;20123;-64
2023/10/30 04:51:19;;;;;;;3.10;1.40;;;;;;;9.15;100.00;96418.16;5045918;28;20045;-64
2023/10/30 04:53:46;;;;;;;2.75;1.27;;;;;;;9.26;100.00;96427.09;5054166;28;20524;-63
2023/10/30 04:56:12;;;;;;;4.30;1.75;;;;;;;9.32;100.00;96432.25;5043892;28;20490;-63
2023/10/30 04:58:39;;;;;;;5.47;1.70;;;;;;;9.19;100.00;96409.28;5048096;28;20067;-64
2023/10/30 05:01:08;;;;;;;4.55;1.38;;;;;;;9.25;100.00;96418.19;5048325;28;20583;-64
2023/10/30 05:03:38;;;;;;;3.15;1.58;;;;;;;9.33;100.00;96428.47;5049112;28;20047;-63
2023/10/30 05:06:06;;;;;;;3.80;1.52;;;;;;;9.38;100.00;96435.78;5051413;28;20037;-63
2023/10/30 05:08:32;;;;;;;6.45;2.28;;;;;;;9.41;100.00;96431.72;5048519;28;20040;-64
2023/10/30 05:11:00;;;;;;;4.13;2.10;;;;;;;9.49;100.00;96421.22;5051083;28;20041;-64
2023/10/30 05:13:26;;;;;;;4.65;2.25;;;;;;;9.53;100.00;96404.44;5042860;28;20057;-63
2023/10/30 05:15:56;;;;;;;3.92;2.17;;;;;;;9.56;100.00;96402.03;5052318;28;20036;-63
2023/10/30 05:18:28;;;;;;;6.75;2.35;;;;;;;9.60;100.00;96396.88;5053429;28;20121;-63
2023/10/30 05:20:55;;;;;;;5.35;4.03;;;;;;;9.59;100.00;96384.47;5039017;28;20497;-64
2023/10/30 05:23:22;;;;;;;3.72;2.72;;;;;;;9.69;100.00;96392.56;5051406;28;20045;-64
2023/10/30 05:25:48;;;;;;;4.38;2.20;;;;;;;9.78;100.00;96383.91;5053171;28;20639;-64
2023/10/30 05:28:15;;;;;;;3.67;1.58;;;;;;;9.80;100.00;96363.63;5046671;28;20475;-63
2023/10/30 05:30:41;;;;;;;6.68;2.00;;;;;;;9.81;100.00;96342.81;5044063;28;20124;-64
2023/10/30 05:33:08;;;;;;;4.18;2.42;;;;;;;9.76;100.00;96308.47;5053716;28;20056;-64
2023/10/30 05:35:35;;;;;;;4.75;2.08;;;;;;;9.70;100.00;96296.88;5041333;28;20045;-63
2023/10/30 05:38:04;;;;;;;5.32;2.38;;;;;;;9.62;100.00;96271.22;5043570;28;20048;-63
2023/10/30 05:40:31;;;;;;;3.28;1.92;;;;;;;9.63;100.00;96277.44;5046482;28;20139;-64
2023/10/30 05:42:57;;;;;;;5.13;1.95;;;;;;;9.65;100.00;96283.38;5043508;28;20036;-64
2023/10/30 05:45:24;;;;;;;3.53;1.80;;;;;;;9.69;100.00;96292.56;5041765;28;20033;-64
2023/10/30 05:47:50;;;;;;;4.13;1.40;;;;;;;9.72;100.00;96289.31;5048007;28;20043;-64
2023/10/30 05:50:17;;;;;;;4.07;1.40;;;;;;;9.69;100.00;96279.03;5051468;28;20098;-64
2023/10/30 05:52:44;;;;;;;2.90;1.10;;;;;;;9.64;100.00;96265.53;5043019;28;20040;-64
2023/10/30 05:55:11;;;;;;;5.30;1.20;;;;;;;9.65;100.00;96269.84;5044711;28;20044;-64
2023/10/30 05:57:37;;;;;;;3.17;1.00;;;;;;;9.71;100.00;96265.25;5036830;28;20053;-63
2023/10/30 06:00:05;;;;;;;3.25;1.40;;;;;;;9.73;100.00;96257.69;5043175;28;20033;-64
2023/10/30 06:02:32;;;;;;;4.20;1.50;;;;;;;9.75;100.00;96259.03;5045767;28;20504;-64
2023/10/30 06:04:59;;;;;;;4.80;1.90;;;;;;;9.80;100.00;96260.09;5046204;28;20094;-64
2023/10/30 06:07:25;;;;;;;3.50;1.60;;;;;;;9.82;100.00;96256.03;5042042;28;20061;-63
2023/10/30 06:09:53;;;;;;;4.03;1.88;;;;;;;9.87;100.00;96272.25;5037475;28;20051;-64
2023/10/30 06:12:20;;;;;;;4.40;1.88;;;;;;;9.90;100.00;96279.00;5036809;28;20049;-63
2023/10/30 06:14:47;;;;;;;3.53;1.63;;;;;;;9.90;100.00;96273.59;5042214;28;20052;-64
2023/10/30 06:17:14;;;;;;;5.25;2.45;;;;;;;9.77;100.00;96247.94;5039581;28;20037;-64
2023/10/30 06:19:41;;;;;;;4.25;1.85;;;;;;;9.74;100.00;96252.00;5040001;28;20048;-64
2023/10/30 06:22:08;;;;;;;4.65;1.60;;;;;;;9.46;100.00;96248.00;5042159;28;20128;-64
2023/10/30 06:24:34;;;;;;;4.20;1.73;;;;;;;9.35;100.00;96258.00;5044753;28;20059;-63
2023/10/30 06:27:01;;;;;;;5.40;1.70;;;;;;;9.22;100.00;96257.47;5038660;28;20577;-64
2023/10/30 06:29:27;;;;;;;3.10;1.60;;;;;;;9.31;100.00;96289.34;5041379;28;20076;-64
2023/10/30 06:31:54;;;;;;;3.42;1.45;;;;;;;9.30;100.00;96282.31;5042866;28;20124;-63
2023/10/30 06:34:21;;;;;;;3.50;1.58;;;;;;;9.20;100.00;96272.31;5038977;28;20045;-64
2023/10/30 06:36:48;;;;;;;2.67;1.38;;;;;;;9.19;100.00;96293.13;5050672;28;20047;-64
2023/10/30 06:39:19;;;;;;;4.25;1.80;;;;;;;8.96;100.00;96284.47;5042035;28;20037;-63
2023/10/30 06:41:48;;;;;;;;;;;;;;;8.89;100.00;96299.31;5042563;28;20045;-64
2023/10/30 06:44:15;;;;;;;3.75;1.58;;;;;;;8.84;100.00;96305.50;5040600;28;20404;-65
2023/10/30 06:46:44;;;;;;;4.75;2.20;;;;;;;8.94;100.00;96302.84;5048840;28;20044;-65
2023/10/30 06:49:11;;;;;;;5.72;2.85;;;;;;;8.97;100.00;96307.69;5039821;28;20041;-65
2023/10/30 06:51:37;;;;;;;7.03;2.60;;;;;;;9.13;100.00;96352.81;5045841;28;20048;-65
2023/10/30 06:54:04;;;;;;;6.28;3.42;;;;;;;9.16;100.00;96346.88;5035836;28;20036;-65
2023/10/30 06:56:30;;;;;;;5.22;2.63;;;;;;;9.02;100.00;96309.59;5036096;28;20041;-65
2023/10/30 06:58:57;;;;;;;4.90;2.30;;;;;;;8.88;100.00;96274.19;5044178;28;20045;-65
2023/10/30 07:01:24;;;;;;;6.43;3.40;;;;;;;8.94;100.00;96280.41;5043461;28;20135;-65
2023/10/30 07:03:50;;;;;;;4.93;3.20;;;;;;;9.04;100.00;96315.53;5043763;28;20045;-65
2023/10/30 07:06:17;;;;;;;6.93;3.78;;;;;;;9.09;100.00;96331.75;5045723;28;20397;-64
2023/10/30 07:08:44;;;;;;;5.93;3.40;;;;;;;9.08;100.00;96329.31;5039887;28;20120;-65
2023/10/30 07:11:11;;;;;;;5.43;3.30;;;;;;;9.08;100.00;96315.81;5047156;28;20064;-64
2023/10/30 07:13:37;;;;;;;7.25;3.95;;;;;;;9.09;100.00;96331.75;5050085;28;20590;-65
2023/10/30 07:16:04;;;;;;;9.80;4.32;;;;;;;9.15;100.00;96334.44;5048150;28;20487;-65
2023/10/30 07:18:31;;;;;;;10.65;4.25;;;;;;;9.17;100.00;96327.69;5039385;28;20566;-65
2023/10/30 07:20:57;;;;;;;6.40;4.32;;;;;;;9.18;100.00;96315.00;5054183;28;20040;-65
2023/10/30 07:23:24;;;;;;;7.43;4.10;;;;;;;9.24;100.00;96327.44;5050338;28;20116;-65
2023/10/30 07:25:51;;;;;;;9.65;4.72;;;;;;;9.40;100.00;96343.66;5049737;28;20637;-65
2023/10/30 07:28:18;;;;;;;6.85;4.20;;;;;;;9.36;100.00;96332.56;5044807;28;20107;-65
2023/10/30 07:30:44;;;;;;;6.20;4.25;;;;;;;9.28;100.00;96300.72;5041388;28;20126;-64
2023/10/30 07:33:11;;;;;;;6.90;4.20;;;;;;;9.41;100.00;96331.75;5048699;28;20078;-65
2023/10/30 07:35:38;;;;;;;7.75;4.43;;;;;;;9.41;100.00;96313.66;5041346;28;20041;-64
2023/10/30 07:38:05;;;;;;;8.50;5.80;;;;;;;9.46;100.00;96307.44;5040734;28;20052;-65
2023/10/30 07:40:31;;;;;;;7.53;4.88;;;;;;;9.55;100.00;96324.72;5041059;28;20421;-65
2023/10/30 07:42:58;;;;;;;9.27;4.93;;;;;;;9.61;100.00;96326.34;5046838;28;20416;-65
2023/10/30 07:45:24;;;;;;;5.95;4.38;;;;;;;9.55;100.00;96295.00;5051012;28;20044;-65
2023/10/30 07:47:52;;;;;;;9.98;5.10;;;;;;;9.63;100.00;96297.16;5035912;28;20037;-64
2023/10/30 07:50:19;;;;;;;7.72;5.05;;;;;;;9.69;100.00;96305.28;5042076;28;20065;-65
2023/10/30 07:52:46;;;;;;;6.43;4.25;;;;;;;9.81;100.00;96323.91;5038955;28;20102;-64
2023/10/30 07:55:12;;;;;;;8.95;5.35;;;;;;;9.80;100.00;96301.44;5040610;28;20412;-65
2023/10/30 07:57:40;;;;;;;6.68;4.60;;;;;;;9.82;100.00;96291.19;5041850;28;20045;-65
2023/10/30 08:00:08;;;;;;;7.43;4.90;;;;;;;9.88;100.00;96298.19;5043460;28;20444;-64
2023/10/30 08:02:40;;;;;;;9.23;5.72;;;;;;;9.89;100.00;96297.09;5042359;28;20073;-64
2023/10/30 08:05:07;;;;;;;9.07;5.78;;;;;;;9.97;100.00;96306.56;5044558;28;20440;-65
2023/10/30 08:07:37;;;;;;;10.85;6.03;;;;;;;10.08;100.00;96274.06;5042013;28;20128;-65
2023/10/30 08:10:04;;;;;;;8.85;6.35;;;;;;;10.16;100.00;96265.38;5046216;28;20037;-65
2023/10/30 08:12:31;;;;;;;9.35;5.93;;;;;;;10.24;100.00;96243.16;5045373;28;20528;-65
2023/10/30 08:14:59;;;;;;;10.63;7.00;;;;;;;10.33;100.00;96243.41;5052689;28;20037;-65
2023/10/30 08:17:26;;;;;;;10.18;6.10;;;;;;;10.41;100.00;96229.31;5039235;28;20037;-65
2023/10/30 08:19:53;;;;;;;8.93;6.50;;;;;;;10.53;100.00;96231.69;5043024;28;20065;-65
2023/10/30 08:22:19;;;;;;;8.25;5.80;;;;;;;10.56;100.00;96200.56;5037351;28;20045;-65
2023/10/30 08:24:46;;;;;;;9.02;5.72;;;;;;;10.63;100.00;96198.34;5046064;28;20259;-65
2023/10/30 08:27:13;;;;;;;8.73;6.40;;;;;;;10.69;100.00;96190.19;5041815;28;20045;-65
2023/10/30 08:29:40;;;;;;;10.15;7.03;;;;;;;10.73;100.00;96193.94;5044054;28;20128;-65
2023/10/30 08:32:06;;;;;;;11.82;6.70;;;;;;;10.78;100.00;96186.59;5041080;28;20697;-65
2023/10/30 08:34:33;;;;;;;11.18;7.65;;;;;;;10.85;100.00;96175.44;5050530;28;20032;-65
2023/10/30 08:37:00;;;;;;;11.00;6.72;;;;;;;10.92;100.00;96175.91;5041249;28;20045;-65
2023/10/30 08:39:26;;;;;;;10.70;7.32;;;;;;;10.99;100.00;96169.38;5040156;28;20128;-65
2023/10/30 08:41:53;;;;;;;10.63;7.55;;;;;;;11.14;100.00;96163.81;5039538;28;20048;-65
2023/10/30 08:44:20;;;;;;;10.77;6.45;;;;;;;11.22;100.00;96167.81;5041322;28;20128;-65
2023/10/30 08:46:51;;;;;;;10.07;6.60;;;;;;;11.26;100.00;96162.59;5046387;28;20040;-65
2023/10/30 08:49:18;;;;;;;10.93;6.82;;;;;;;11.32;100.00;96156.84;5048249;28;20116;-65
2023/10/30 08:51:44;;;;;;;8.73;6.22;;;;;;;11.39;100.00;96161.13;5039871;28;20076;-65
2023/10/30 08:54:28;;;;;;;9.05;6.50;;;;;;;11.49;100.00;96149.34;5037545;28;20048;-65
2023/10/30 08:56:55;;;;;;;12.15;6.70;;;;;;;11.54;100.00;96150.13;5042394;28;20051;-65
2023/10/30 08:59:35;;;;;;;9.20;6.13;;;;;;;11.60;100.00;96161.72;5040371;28;20127;-65
2023/10/30 09:02:02;;;;;;;7.80;5.18;;;;;;;11.65;100.00;96156.22;5049864;28;20040;-65
2023/10/30 09:04:28;;;;;;;9.38;5.85;;;;;;;11.76;100.00;96143.34;5041877;28;20044;-65
2023/10/30 09:06:55;;;;;;;10.93;6.68;;;;;;;11.84;100.00;96142.72;5041882;28;20036;-64
2023/10/30 09:09:22;;;;;;;9.90;6.20;;;;;;;11.87;100.00;96143.25;5039590;28;20043;-65
2023/10/30 09:11:48;;;;;;;8.45;5.68;;;;;;;11.90;100.00;96139.97;5043371;28;20052;-65
2023/10/30 09:14:15;;;;;;;9.43;5.50;;;;;;;11.97;100.00;96137.66;5046155;28;20044;-64
2023/10/30 09:16:42;;;;;;;8.15;5.03;;;;;;;12.00;100.00;96137.09;5039007;28;20056;-65
2023/10/30 09:19:08;;;;;;;10.05;5.60;;;;;;;12.03;100.00;96130.28;5039946;28;20051;-65
2023/10/30 09:21:35;;;;;;;7.80;4.43;;;;;;;12.10;100.00;96128.06;5049500;28;20123;-64
2023/10/30 09:24:02;;;;;;;7.75;4.90;;;;;;;12.18;100.00;96123.88;5041884;28;20040;-65
2023/10/30 09:26:29;;;;;;;8.60;5.10;;;;;;;12.22;100.00;96124.88;5040513;28;20068;-65
2023/10/30 09:28:56;;;;;;;7.35;5.30;;;;;;;12.23;100.00;96119.19;5040954;28;20055;-65
2023/10/30 09:31:23;;;;;;;8.07;5.38;;;;;;;12.27;100.00;96113.97;5039119;28;20044;-65
2023/10/30 09:33:49;;;;;;;8.13;4.70;;;;;;;12.32;100.00;96121.22;5040321;28;21258;-65
2023/10/30 09:36:16;;;;;;;8.30;5.40;;;;;;;12.34;100.00;96119.00;5047755;28;20068;-65
2023/10/30 09:38:42;;;;;;;8.40;5.00;;;;;;;12.39;100.00;96124.38;5041241;28;20562;-65
2023/10/30 09:41:12;;;;;;;9.45;5.13;;;;;;;12.44;100.00;96113.44;5043767;28;20067;-65
2023/10/30 09:43:39;;;;;;;7.38;5.22;;;;;;;12.47;100.00;96117.47;5049920;28;20609;-65
2023/10/30 09:46:06;;;;;;;9.20;5.28;;;;;;;12.49;100.00;96112.53;5039946;28;20044;-65
2023/10/30 09:48:36;;;;;;;10.75;5.38;;;;;;;12.55;100.00;96107.84;5043833;28;21418;-65
2023/10/30 09:51:05;;;;;;;8.20;4.57;;;;;;;12.59;100.00;96106.97;5041555;28;20037;-65
2023/10/30 09:53:35;;;;;;;8.07;4.35;;;;;;;12.65;100.00;96099.56;5038882;28;20045;-65
2023/10/30 09:56:03;;;;;;;8.18;4.78;;;;;;;12.68;100.00;96107.09;5038549;28;20048;-65
2023/10/30 09:58:31;;;;;;;7.20;4.40;;;;;;;12.73;100.00;96095.34;5044962;28;20164;-65
2023/10/30 10:00:59;;;;;;;9.82;5.03;;;;;;;12.77;100.00;96092.81;5040029;28;20150;-65
2023/10/30 10:03:26;;;;;;;7.78;4.78;;;;;;;12.85;100.00;96081.28;5041411;28;20679;-65
2023/10/30 10:05:57;;;;;;;6.45;4.00;;;;;;;12.94;100.00;96084.13;5051322;28;20114;-64
2023/10/30 10:08:24;;;;;;;6.10;3.88;;;;;;;13.02;100.00;96091.59;5040557;28;20037;-65
2023/10/30 10:10:59;;;;;;;6.57;4.00;;;;;;;13.12;100.00;96091.38;5046788;28;20423;-65
2023/10/30 10:13:31;;;;;;;5.38;3.63;;;;;;;13.21;100.00;96090.69;5039875;28;20033;-65
2023/10/30 10:15:58;;;;;;;7.88;4.07;;;;;;;13.30;100.00;96086.16;5045503;28;20123;-65
2023/10/30 10:18:32;;;;;;;5.75;3.45;;;;;;;13.39;100.00;96087.06;5044471;28;20037;-65
2023/10/30 10:21:04;;;;;;;5.20;3.42;;;;;;;13.49;100.00;96077.16;5036871;28;20056;-65
2023/10/30 10:23:33;;;;;;;7.88;3.67;;;;;;;13.45;100.00;96076.91;5041065;28;20041;-65
2023/10/30 10:26:04;;;;;;;5.13;3.55;;;;;;;13.48;100.00;96067.38;5039493;28;20037;-65
2023/10/30 10:28:32;;;;;;;6.03;3.63;;;;;;;13.48;100.00;96064.63;5047770;28;20044;-65
2023/10/30 10:30:59;;;;;;;8.60;3.63;;;;;;;13.52;100.00;96052.06;5050148;28;20055;-64
2023/10/30 10:33:27;;;;;;;6.18;2.75;;;;;;;13.56;100.00;96047.63;5037896;28;20036;-65
2023/10/30 10:35:55;;;;;;;4.90;2.80;;;;;;;13.65;100.00;96037.63;5045033;28;20060;-65
2023/10/30 10:38:22;;;;;;;4.00;2.45;;;;;;;13.76;100.00;96031.97;5045299;28;20048;-65
2023/10/30 10:40:50;;;;;;;5.72;3.10;;;;;;;13.83;100.00;96040.53;5046468;28;20139;-64
2023/10/30 10:43:19;;;;;;;6.85;2.95;;;;;;;13.93;100.00;96036.75;5039677;28;20041;-65
2023/10/30 10:45:53;;;;;;;4.20;2.40;;;;;;;13.93;100.00;96034.03;5041483;28;20068;-65
2023/10/30 10:48:21;;;;;;;4.68;2.70;;;;;;;13.94;100.00;96021.25;5053619;28;20102;-65
2023/10/30 10:50:48;;;;;;;3.97;2.33;;;;;;;13.86;100.00;96020.88;5046190;28;20057;-65
2023/10/30 10:53:18;;;;;;;6.53;2.97;;;;;;;13.82;100.00;96016.34;5054865;28;20462;-64
2023/10/30 10:55:50;;;;;;;5.03;2.72;;;;;;;13.81;100.00;96001.16;5043139;28;20678;-65
2023/10/30 10:58:28;;;;;;;6.63;3.53;;;;;;;13.75;100.00;95997.75;5043368;28;20041;-65
2023/10/30 11:00:58;;;;;;;17.90;14.00;;;;;;;13.79;100.00;95998.75;5052032;28;20264;-65
2023/10/30 11:03:25;;;;;;;23.30;18.23;;;;;;;13.83;100.00;95998.91;5044709;28;20040;-65
2023/10/30 11:05:53;;;;;;;14.65;10.75;;;;;;;13.75;100.00;96003.97;5047121;28;20561;-65
2023/10/30 11:08:45;;;;;;;8.15;5.85;;;;;;;13.62;100.00;95991.22;5047350;28;20523;-65
2023/10/30 11:11:20;;;;;;;;;;;;;;;13.62;100.00;95989.31;5043921;28;20049;-65
2023/10/30 11:13:53;;;;;;;8.40;5.50;;;;;;;13.64;100.00;95989.00;5050989;28;20434;-65
2023/10/30 11:16:24;;;;;;;7.13;4.57;;;;;;;13.61;100.00;95995.03;5039075;28;20055;-65
2023/10/30 11:18:52;;;;;;;6.60;3.53;;;;;;;13.64;100.00;95980.84;5044031;28;20415;-65
2023/10/30 11:21:25;;;;;;;6.60;2.60;;;;;;;13.68;100.00;95979.13;5043838;28;20333;-65
2023/10/30 11:23:55;;;;;;;4.85;2.65;;;;;;;13.66;100.00;95975.88;5051166;28;20044;-65
2023/10/30 11:26:29;;;;;;;5.53;2.70;;;;;;;13.59;100.00;95979.03;5051015;28;20060;-65
2023/10/30 11:28:59;;;;;;;6.65;2.90;;;;;;;13.60;100.00;95975.19;5051832;28;20090;-65
2023/10/30 11:31:31;;;;;;;4.68;2.83;;;;;;;13.61;100.00;95976.81;5043640;28;20037;-65